createdAt,value
2019-03-21T00:01:11.104Z,99040.06
2019-03-21T00:04:19.952Z,99046.80
2019-03-21T00:07:28.748Z,99051.23
2019-03-21T00:11:50.254Z,99052.23
2019-03-21T00:15:12.127Z,99053.70
2019-03-21T00:18:21.292Z,99051.27
2019-03-21T00:21:30.644Z,99045.95
2019-03-21T00:24:43.143Z,99036.52
2019-03-21T00:27:52.614Z,99048.23
2019-03-21T00:31:01.631Z,99045.67
2019-03-21T00:34:10.788Z,99039.17
2019-03-21T00:37:19.745Z,99041.69
2019-03-21T00:40:31.969Z,99040.14
2019-03-21T00:43:43.001Z,99045.89
2019-03-21T00:46:52.048Z,99044.19
2019-03-21T00:50:00.782Z,99038.27
2019-03-21T00:53:11.781Z,99033.02
2019-03-21T00:56:20.677Z,99028.14
2019-03-21T00:59:30.049Z,99023.30
2019-03-21T01:02:39.763Z,99028.07
2019-03-21T01:05:49.301Z,99028.08
2019-03-21T01:09:00.255Z,99028.26
2019-03-21T01:12:10.813Z,99019.88
2019-03-21T01:15:19.991Z,99022.47
2019-03-21T01:18:29.243Z,99017.47
2019-03-21T01:21:41.117Z,99014.19
2019-03-21T01:24:49.919Z,99013.58
2019-03-21T01:28:01.032Z,99012.90
2019-03-21T01:31:10.268Z,99009.54
2019-03-21T01:34:19.073Z,98991.91
2019-03-21T01:37:27.962Z,98986.44
2019-03-21T01:40:39.107Z,98986.50
2019-03-21T01:43:49.675Z,98986.03
2019-03-21T01:46:59.228Z,98980.82
2019-03-21T01:50:09.468Z,98978.59
2019-03-21T01:53:18.931Z,98979.72
2019-03-21T01:56:30.523Z,98974.54
2019-03-21T01:59:41.829Z,98964.17
2019-03-21T02:02:53.150Z,98972.84
2019-03-21T02:06:01.853Z,98965.66
2019-03-21T02:09:11.891Z,98963.52
2019-03-21T02:12:20.849Z,98968.18
2019-03-21T02:15:34.185Z,98956.16
2019-03-21T02:18:44.812Z,98955.36
2019-03-21T02:21:52.728Z,98961.00
2019-03-21T02:25:00.417Z,98958.58
2019-03-21T02:28:08.463Z,98955.83
2019-03-21T02:31:16.121Z,98958.65
2019-03-21T02:34:23.814Z,98952.00
2019-03-21T02:37:31.443Z,98950.30
2019-03-21T02:40:39.563Z,98958.61
2019-03-21T02:43:48.068Z,98958.83
2019-03-21T02:46:55.767Z,98964.59
2019-03-21T02:50:03.414Z,98958.97
2019-03-21T02:53:11.154Z,98960.80
2019-03-21T02:56:22.583Z,98960.73
2019-03-21T02:59:30.288Z,98956.48
2019-03-21T03:02:40.973Z,98960.87
2019-03-21T03:05:48.627Z,98958.98
2019-03-21T03:08:56.461Z,98952.03
2019-03-21T03:12:06.109Z,98954.20
2019-03-21T03:15:22.944Z,98953.97
2019-03-21T03:18:31.268Z,98959.65
2019-03-21T03:21:38.850Z,98955.63
2019-03-21T03:24:46.656Z,98964.78
2019-03-21T03:27:56.677Z,98965.45
2019-03-21T03:31:04.534Z,98961.90
2019-03-21T03:34:12.220Z,98966.05
2019-03-21T03:37:19.864Z,98975.23
2019-03-21T03:40:32.295Z,98973.42
2019-03-21T03:43:40.230Z,98973.62
2019-03-21T03:46:47.876Z,98968.91
2019-03-21T03:49:55.572Z,98962.96
2019-03-21T03:53:03.133Z,98966.75
2019-03-21T03:56:11.775Z,98969.27
2019-03-21T03:59:20.659Z,98971.25
2019-03-21T04:02:28.326Z,98978.74
2019-03-21T04:05:39.908Z,98987.66
2019-03-21T04:08:47.594Z,98987.22
2019-03-21T04:11:55.284Z,98988.80
2019-03-21T04:15:02.951Z,98985.69
2019-03-21T04:18:10.711Z,98993.76
2019-03-21T04:21:18.484Z,98994.09
2019-03-21T04:24:26.112Z,98988.41
2019-03-21T04:27:35.318Z,98989.79
2019-03-21T04:30:43.273Z,98995.63
2019-03-21T04:33:51.524Z,98996.54
2019-03-21T04:36:59.115Z,98989.70
2019-03-21T04:40:07.654Z,98986.27
2019-03-21T04:43:15.629Z,98986.69
2019-03-21T04:46:23.207Z,98987.55
2019-03-21T04:49:30.938Z,98991.33
2019-03-21T04:52:38.605Z,98991.81
2019-03-21T04:56:05.197Z,98995.33
2019-03-21T04:59:12.887Z,98988.77
2019-03-21T05:02:21.011Z,98982.81
2019-03-21T05:05:29.763Z,98983.60
2019-03-21T05:08:37.428Z,98981.55
2019-03-21T05:11:45.075Z,98983.44
2019-03-21T05:14:52.654Z,98980.99
2019-03-21T05:18:04.949Z,98990.73
2019-03-21T05:21:14.264Z,98991.96
2019-03-21T05:24:21.873Z,98988.09
2019-03-21T05:27:29.585Z,98995.09
2019-03-21T05:30:42.900Z,98998.21
2019-03-21T05:33:50.466Z,98993.83
2019-03-21T05:36:58.086Z,98999.11
2019-03-21T05:40:07.046Z,98999.20
2019-03-21T05:43:19.458Z,99002.08
2019-03-21T05:46:28.860Z,99007.21
2019-03-21T05:49:36.909Z,99005.24
2019-03-21T05:52:44.796Z,99011.47
2019-03-21T05:55:52.611Z,99024.47
2019-03-21T05:59:00.170Z,99023.13
2019-03-21T06:02:07.867Z,99028.17
2019-03-21T06:05:16.734Z,99029.80
2019-03-21T06:08:29.617Z,99028.29
2019-03-21T06:11:39.583Z,99030.47
2019-03-21T06:14:53.556Z,99032.42
2019-03-21T06:18:55.199Z,99036.38
2019-03-21T06:22:55.989Z,99039.52
2019-03-21T06:26:51.447Z,99032.59
2019-03-21T06:29:59.486Z,99034.08
2019-03-21T06:33:07.155Z,99030.17
2019-03-21T06:36:15.905Z,99034.14
2019-03-21T06:39:27.657Z,99040.70
2019-03-21T06:42:35.366Z,99036.88
2019-03-21T06:45:48.198Z,99033.54
2019-03-21T06:48:54.085Z,99039.38
2019-03-21T06:52:01.701Z,99048.77
2019-03-21T06:55:09.452Z,99051.33
2019-03-21T06:58:18.097Z,99054.62
2019-03-21T07:01:25.722Z,99052.73
2019-03-21T07:04:33.413Z,99062.91
2019-03-21T07:07:41.288Z,99055.46
2019-03-21T07:10:49.133Z,99057.86
2019-03-21T07:13:56.985Z,99055.16
2019-03-21T07:17:05.852Z,99050.04
2019-03-21T07:20:14.384Z,99052.16
2019-03-21T07:23:22.026Z,99056.44
2019-03-21T07:26:33.021Z,99060.97
2019-03-21T07:29:40.714Z,99066.20
2019-03-21T07:32:48.482Z,99060.83
2019-03-21T07:35:56.136Z,99061.34
2019-03-21T07:39:04.201Z,99057.89
2019-03-21T07:42:11.796Z,99054.16
2019-03-21T07:45:19.588Z,99055.09
2019-03-21T07:48:28.863Z,99060.67
2019-03-21T07:51:39.612Z,99054.33
2019-03-21T07:54:47.408Z,99053.66
2019-03-21T07:57:56.167Z,99047.75
2019-03-21T08:01:03.870Z,99051.66
2019-03-21T08:04:11.542Z,99047.98
2019-03-21T08:07:19.113Z,99048.97
2019-03-21T08:10:28.471Z,99040.54
2019-03-21T08:13:36.162Z,99038.05
2019-03-21T08:16:43.936Z,99040.67
2019-03-21T08:19:51.611Z,99039.76
2019-03-21T08:22:59.461Z,99046.67
2019-03-21T08:26:07.129Z,99042.81
2019-03-21T08:29:14.835Z,99045.38
2019-03-21T08:32:23.203Z,99050.52
2019-03-21T08:35:30.877Z,99054.82
2019-03-21T08:38:38.670Z,99058.25
2019-03-21T08:41:46.346Z,99059.98
2019-03-21T08:44:53.979Z,99056.16
2019-03-21T08:48:01.666Z,99051.88
2019-03-21T08:51:09.336Z,99058.70
2019-03-21T08:54:17.159Z,99060.80
2019-03-21T08:57:24.941Z,99067.18
2019-03-21T09:00:34.513Z,99064.99
2019-03-21T09:03:41.875Z,99072.23
2019-03-21T09:06:49.644Z,99067.85
2019-03-21T09:09:57.288Z,99062.30
2019-03-21T09:13:05.231Z,99067.83
2019-03-21T09:16:12.879Z,99068.58
2019-03-21T09:19:20.583Z,99060.44
2019-03-21T09:22:28.246Z,99065.84
2019-03-21T09:25:36.901Z,99060.57
2019-03-21T09:28:44.613Z,99057.73
2019-03-21T09:31:52.336Z,99054.47
2019-03-21T09:35:00.076Z,99050.34
2019-03-21T09:38:07.893Z,99047.59
2019-03-21T09:41:15.635Z,99051.41
2019-03-21T09:44:29.992Z,99050.86
2019-03-21T09:47:38.291Z,99042.64
2019-03-21T09:50:46.145Z,99045.65
2019-03-21T09:53:53.868Z,99044.64
2019-03-21T09:57:02.392Z,99045.43
2019-03-21T10:00:10.231Z,99045.73
2019-03-21T10:03:19.051Z,99036.91
2019-03-21T10:06:27.159Z,99040.05
2019-03-21T10:09:34.995Z,99035.44
2019-03-21T10:12:42.629Z,99041.72
2019-03-21T10:15:52.572Z,99040.00
2019-03-21T10:19:00.327Z,99036.34
2019-03-21T10:22:08.012Z,99038.64
2019-03-21T10:25:15.844Z,99037.02
2019-03-21T10:28:23.567Z,99035.84
2019-03-21T10:31:31.170Z,99034.17
2019-03-21T10:34:38.821Z,99034.19
2019-03-21T10:37:46.518Z,99039.74
2019-03-21T10:40:54.248Z,99028.84
2019-03-21T10:44:02.029Z,99026.34
2019-03-21T10:47:10.100Z,99025.73
2019-03-21T10:50:28.171Z,99024.25
2019-03-21T10:53:35.923Z,99015.04
2019-03-21T10:56:43.728Z,99012.97
2019-03-21T10:59:51.631Z,99011.76
2019-03-21T11:02:59.376Z,99008.46
2019-03-21T11:06:08.190Z,99004.86
2019-03-21T11:09:15.853Z,99006.16
2019-03-21T11:12:23.547Z,99008.52
2019-03-21T11:15:31.336Z,99003.45
2019-03-21T11:18:40.203Z,99005.73
2019-03-21T11:21:47.991Z,99001.22
2019-03-21T11:24:55.827Z,98988.67
2019-03-21T11:28:03.499Z,98985.79
2019-03-21T11:31:11.217Z,98987.53
2019-03-21T11:34:20.407Z,98983.16
2019-03-21T11:37:28.173Z,98976.37
2019-03-21T11:40:35.971Z,98974.42
2019-03-21T11:43:43.630Z,98969.50
2019-03-21T11:46:51.350Z,98958.80
2019-03-21T11:49:59.050Z,98955.11
2019-03-21T11:53:06.771Z,98959.13
2019-03-21T11:56:19.040Z,98949.02
2019-03-21T11:59:41.263Z,98949.42
2019-03-21T12:02:36.653Z,98945.00
2019-03-21T12:05:44.326Z,98937.66
2019-03-21T12:08:52.118Z,98933.30
2019-03-21T12:11:59.779Z,98924.03
2019-03-21T12:15:09.591Z,98924.75
2019-03-21T12:18:17.327Z,98929.53
2019-03-21T12:21:31.217Z,98916.94
2019-03-21T12:24:39.101Z,98915.95
2019-03-21T12:27:46.973Z,98917.56
2019-03-21T12:30:54.744Z,98916.63
2019-03-21T12:34:02.546Z,98914.48
2019-03-21T12:37:11.644Z,98912.99
2019-03-21T12:40:19.390Z,98911.75
2019-03-21T12:43:27.176Z,98910.34
2019-03-21T12:46:35.047Z,98903.49
2019-03-21T12:49:42.726Z,98904.06
2019-03-21T12:52:50.639Z,98900.31
2019-03-21T12:56:00.522Z,98894.79
2019-03-21T12:59:08.313Z,98894.71
2019-03-21T13:02:16.044Z,98887.57
2019-03-21T13:05:30.164Z,98887.07
2019-03-21T13:08:37.852Z,98879.08
2019-03-21T13:11:45.743Z,98879.96
2019-03-21T13:14:53.456Z,98882.94
2019-03-21T13:18:01.685Z,98872.68
2019-03-21T13:21:09.411Z,98870.42
2019-03-21T13:24:19.595Z,98869.09
2019-03-21T13:27:26.843Z,98865.48
2019-03-21T13:30:37.884Z,98859.88
2019-03-21T13:33:45.756Z,98856.44
2019-03-21T13:36:54.859Z,98853.67
2019-03-21T13:40:05.118Z,98852.59
2019-03-21T13:43:13.133Z,98850.70
2019-03-21T13:46:20.939Z,98849.84
2019-03-21T13:49:29.781Z,98832.12
2019-03-21T13:52:37.577Z,98835.94
2019-03-21T13:55:45.524Z,98832.01
2019-03-21T13:58:53.444Z,98826.81
2019-03-21T14:02:02.705Z,98825.53
2019-03-21T14:05:10.665Z,98816.64
2019-03-21T14:08:20.563Z,98814.44
2019-03-21T14:11:28.266Z,98814.95
2019-03-21T14:14:36.112Z,98807.37
2019-03-21T14:17:43.940Z,98805.47
2019-03-21T14:20:52.763Z,98802.63
2019-03-21T14:24:01.034Z,98807.02
2019-03-21T14:27:09.836Z,98802.81
2019-03-21T14:30:18.431Z,98792.06
2019-03-21T14:33:26.270Z,98793.77
2019-03-21T14:36:34.217Z,98788.52
2019-03-21T14:39:42.036Z,98783.56
2019-03-21T14:42:49.854Z,98782.48
2019-03-21T14:45:57.650Z,98785.38
2019-03-21T14:49:05.395Z,98779.06
2019-03-21T14:52:13.092Z,98779.88
2019-03-21T14:55:20.933Z,98777.96
2019-03-21T14:58:29.209Z,98780.05
2019-03-21T15:01:40.864Z,98774.78
2019-03-21T15:04:48.894Z,98771.67
2019-03-21T15:07:56.633Z,98771.98
2019-03-21T15:11:17.140Z,98768.53
2019-03-21T15:14:25.468Z,98772.61
2019-03-21T15:17:33.391Z,98772.97
2019-03-21T15:20:43.086Z,98766.30
2019-03-21T15:23:59.348Z,98766.74
2019-03-21T15:27:02.421Z,98768.67
2019-03-21T15:30:13.952Z,98769.77
2019-03-21T15:33:21.910Z,98767.43
2019-03-21T15:36:29.680Z,98763.17
2019-03-21T15:39:37.461Z,98762.97
2019-03-21T15:42:47.338Z,98764.70
2019-03-21T15:45:55.524Z,98767.65
2019-03-21T15:49:06.101Z,98762.78
2019-03-21T15:52:14.114Z,98764.47
2019-03-21T15:55:21.884Z,98753.58
2019-03-21T15:58:29.618Z,98758.33
2019-03-21T16:01:37.493Z,98759.63
2019-03-21T16:04:48.206Z,98759.03
2019-03-21T16:07:55.955Z,98764.30
2019-03-21T16:11:04.733Z,98763.43
2019-03-21T16:14:13.430Z,98771.38
2019-03-21T16:17:21.092Z,98767.32
2019-03-21T16:20:29.492Z,98762.55
2019-03-21T16:23:37.098Z,98760.05
2019-03-21T16:26:44.833Z,98761.24
2019-03-21T16:29:55.559Z,98758.80
2019-03-21T16:33:03.502Z,98758.98
2019-03-21T16:36:14.385Z,98761.86
2019-03-21T16:39:22.102Z,98763.11
2019-03-21T16:42:29.956Z,98762.12
2019-03-21T16:45:37.774Z,98759.59
2019-03-21T16:48:47.496Z,98760.28
2019-03-21T16:51:57.914Z,98758.95
2019-03-21T16:55:08.183Z,98755.03
2019-03-21T16:58:18.896Z,98756.97
2019-03-21T17:01:26.817Z,98748.34
2019-03-21T17:04:34.744Z,98759.14
2019-03-21T17:07:42.396Z,98757.61
2019-03-21T17:10:50.211Z,98761.49
2019-03-21T17:13:57.979Z,98763.21
2019-03-21T17:17:11.384Z,98765.45
2019-03-21T17:20:19.047Z,98772.13
2019-03-21T17:23:26.818Z,98769.45
2019-03-21T17:26:34.398Z,98770.33
2019-03-21T17:29:42.116Z,98778.92
2019-03-21T17:32:50.840Z,98782.50
2019-03-21T17:35:58.873Z,98780.45
2019-03-21T17:39:10.532Z,98784.38
2019-03-21T17:42:21.179Z,98789.61
2019-03-21T17:45:29.483Z,98788.69
2019-03-21T17:48:37.289Z,98792.66
2019-03-21T17:51:46.697Z,98799.58
2019-03-21T17:54:57.631Z,98793.27
2019-03-21T17:58:05.451Z,98800.38
2019-03-21T18:01:13.504Z,98810.16
2019-03-21T18:04:21.315Z,98807.31
2019-03-21T18:07:29.175Z,98808.12
2019-03-21T18:10:37.569Z,98812.39
2019-03-21T18:13:46.366Z,98811.02
2019-03-21T18:16:55.834Z,98819.21
2019-03-21T18:20:06.203Z,98818.30
2019-03-21T18:23:17.471Z,98822.58
2019-03-21T18:26:26.651Z,98818.23
2019-03-21T18:29:35.504Z,98825.38
2019-03-21T18:32:44.530Z,98826.59
2019-03-21T18:35:53.652Z,98832.29
2019-03-21T18:39:03.769Z,98835.03
2019-03-21T18:42:13.162Z,98837.32
2019-03-21T18:45:23.045Z,98843.95
2019-03-21T18:48:32.124Z,98843.58
2019-03-21T18:51:41.474Z,98848.50
2019-03-21T18:54:50.522Z,98847.88
2019-03-21T18:58:00.365Z,98848.91
2019-03-21T19:01:12.614Z,98841.36
2019-03-21T19:04:22.135Z,98848.06
2019-03-21T19:07:33.017Z,98847.53
2019-03-21T19:10:44.752Z,98847.30
2019-03-21T19:13:55.682Z,98845.30
2019-03-21T19:17:07.416Z,98852.70
2019-03-21T19:20:17.118Z,98856.38
2019-03-21T19:23:26.265Z,98857.00
2019-03-21T19:26:35.025Z,98858.30
2019-03-21T19:29:47.274Z,98856.16
2019-03-21T19:32:56.155Z,98860.84
2019-03-21T19:36:08.657Z,98853.59
2019-03-21T19:39:17.801Z,98859.09
2019-03-21T19:42:26.813Z,98856.48
2019-03-21T19:45:35.757Z,98853.58
2019-03-21T19:48:50.482Z,98856.61
2019-03-21T19:51:56.556Z,98855.73
2019-03-21T19:55:05.740Z,98860.40
2019-03-21T19:58:16.367Z,98856.95
2019-03-21T20:01:25.357Z,98852.30
2019-03-21T20:04:34.216Z,98851.80
2019-03-21T20:07:43.688Z,98855.26
2019-03-21T20:10:52.919Z,98857.83
2019-03-21T20:14:03.982Z,98871.05
2019-03-21T20:17:12.436Z,98871.47
2019-03-21T20:20:21.392Z,98873.51
2019-03-21T20:23:30.582Z,98868.39
2019-03-21T20:26:39.243Z,98869.32
2019-03-21T20:29:48.109Z,98867.55
2019-03-21T20:32:57.405Z,98860.75
2019-03-21T20:36:08.535Z,98860.40
2019-03-21T20:39:17.824Z,98857.83
2019-03-21T20:42:26.613Z,98864.23
2019-03-21T20:45:35.578Z,98857.84
2019-03-21T20:48:41.021Z,98856.98
2019-03-21T20:51:54.293Z,98857.42
2019-03-21T20:55:05.744Z,98857.02
2019-03-21T20:58:14.847Z,98860.84
2019-03-21T21:01:23.542Z,98862.90
2019-03-21T21:04:31.320Z,98855.59
2019-03-21T21:07:39.740Z,98853.42
2019-03-21T21:10:47.617Z,98850.50
2019-03-21T21:13:55.459Z,98850.19
2019-03-21T21:17:05.402Z,98858.69
2019-03-21T21:20:15.272Z,98860.41
2019-03-21T21:23:23.122Z,98858.30
2019-03-21T21:26:30.830Z,98862.53
2019-03-21T21:29:38.873Z,98859.53
2019-03-21T21:32:46.874Z,98858.70
2019-03-21T21:35:54.855Z,98862.12
2019-03-21T21:39:02.711Z,98862.11
2019-03-21T21:42:11.141Z,98870.19
2019-03-21T21:45:19.470Z,98862.09
2019-03-21T21:48:27.203Z,98862.94
2019-03-21T21:51:35.046Z,98862.45
2019-03-21T21:54:42.659Z,98860.31
2019-03-21T21:57:50.421Z,98867.51
2019-03-21T22:01:03.911Z,98866.75
2019-03-21T22:04:11.991Z,98862.52
2019-03-21T22:07:21.145Z,98861.66
2019-03-21T22:10:29.601Z,98865.91
2019-03-21T22:13:40.099Z,98871.05
2019-03-21T22:16:47.856Z,98865.52
2019-03-21T22:19:55.765Z,98867.21
2019-03-21T22:23:03.435Z,98859.15
2019-03-21T22:26:11.268Z,98868.89
2019-03-21T22:29:18.924Z,98874.80
2019-03-21T22:32:26.656Z,98876.98
2019-03-21T22:35:34.538Z,98870.61
2019-03-21T22:38:43.336Z,98866.34
2019-03-21T22:41:51.180Z,98865.45
2019-03-21T22:44:59.256Z,98854.61
2019-03-21T22:48:07.380Z,98852.10
2019-03-21T22:51:15.086Z,98852.56
2019-03-21T22:54:22.912Z,98856.42
2019-03-21T22:57:30.549Z,98852.55
2019-03-21T23:00:46.262Z,98850.06
2019-03-21T23:03:54.570Z,98854.19
2019-03-21T23:07:02.261Z,98842.70
2019-03-21T23:10:11.383Z,98841.11
2019-03-21T23:13:19.056Z,98846.57
2019-03-21T23:16:26.786Z,98844.91
2019-03-21T23:19:36.013Z,98849.97
2019-03-21T23:22:43.712Z,98846.86
2019-03-21T23:25:51.536Z,98841.30
2019-03-21T23:28:59.302Z,98849.98
2019-03-21T23:32:09.978Z,98849.38
2019-03-21T23:35:17.941Z,98847.74
2019-03-21T23:38:25.672Z,98850.22
2019-03-21T23:41:33.466Z,98851.50
2019-03-21T23:44:41.117Z,98847.80
2019-03-21T23:47:49.230Z,98849.83
2019-03-21T23:50:56.893Z,98847.66
2019-03-21T23:54:05.160Z,98849.40
2019-03-21T23:57:12.811Z,98842.59
